createdAt,value
2023-04-20T00:00:11.810Z,92.60
2023-04-20T00:03:01.258Z,92.76
2023-04-20T00:05:34.513Z,92.83
2023-04-20T00:08:03.260Z,92.91
2023-04-20T00:10:31.661Z,92.97
2023-04-20T00:13:00.027Z,93.01
2023-04-20T00:15:28.457Z,93.04
2023-04-20T00:17:57.209Z,93.24
2023-04-20T00:20:25.741Z,93.38
2023-04-20T00:22:54.336Z,93.38
2023-04-20T00:25:22.738Z,93.42
2023-04-20T00:27:53.541Z,93.54
2023-04-20T00:30:22.152Z,93.50
2023-04-20T00:32:52.134Z,93.44
2023-04-20T00:35:20.750Z,93.41
2023-04-20T00:37:49.118Z,93.40
2023-04-20T00:40:17.637Z,93.46
2023-04-20T00:42:46.017Z,93.42
2023-04-20T00:45:14.344Z,93.41
2023-04-20T00:47:42.781Z,93.32
2023-04-20T00:50:11.860Z,93.39
2023-04-20T00:52:41.789Z,93.35
2023-04-20T00:55:11.247Z,93.27
2023-04-20T00:57:41.665Z,93.33
2023-04-20T01:00:11.057Z,93.46
2023-04-20T01:02:39.543Z,93.56
2023-04-20T01:05:09.326Z,93.56
2023-04-20T01:07:37.732Z,93.57
2023-04-20T01:10:10.432Z,93.67
2023-04-20T01:12:39.046Z,93.70
2023-04-20T01:15:08.510Z,93.69
2023-04-20T01:17:40.557Z,93.83
2023-04-20T01:20:14.930Z,94.01
2023-04-20T01:22:56.325Z,94.03
2023-04-20T01:25:25.579Z,93.75
2023-04-20T01:27:53.994Z,93.76
2023-04-20T01:30:22.791Z,93.76
2023-04-20T01:32:51.439Z,93.90
2023-04-20T01:35:19.840Z,93.86
2023-04-20T01:37:48.238Z,93.91
2023-04-20T01:40:16.703Z,93.96
2023-04-20T01:42:45.194Z,94.10
2023-04-20T01:45:13.524Z,94.02
2023-04-20T01:47:41.985Z,94.02
2023-04-20T01:50:10.813Z,94.05
2023-04-20T01:52:39.215Z,94.07
2023-04-20T01:55:08.889Z,94.25
2023-04-20T01:57:37.310Z,94.28
2023-04-20T02:00:07.108Z,94.24
2023-04-20T02:02:35.950Z,94.39
2023-04-20T02:05:06.970Z,94.44
2023-04-20T02:07:35.430Z,94.28
2023-04-20T02:10:04.789Z,94.18
2023-04-20T02:12:33.197Z,94.33
2023-04-20T02:15:01.615Z,94.35
2023-04-20T02:17:30.009Z,94.49
2023-04-20T02:19:58.644Z,94.66
2023-04-20T02:22:26.977Z,94.53
2023-04-20T02:24:55.404Z,94.59
2023-04-20T02:27:23.749Z,94.64
2023-04-20T02:29:52.089Z,94.69
2023-04-20T02:32:20.494Z,94.71
2023-04-20T02:34:48.891Z,94.69
2023-04-20T02:37:17.381Z,94.47
2023-04-20T02:39:46.128Z,94.41
2023-04-20T02:42:14.557Z,94.26
2023-04-20T02:44:42.874Z,94.20
2023-04-20T02:47:11.276Z,94.29
2023-04-20T02:49:39.659Z,94.16
2023-04-20T02:52:08.021Z,94.38
2023-04-20T02:54:36.605Z,94.13
2023-04-20T02:57:05.329Z,94.15
2023-04-20T02:59:33.781Z,94.21
2023-04-20T03:02:02.273Z,94.15
2023-04-20T03:04:32.142Z,94.00
2023-04-20T03:07:01.440Z,93.88
2023-04-20T03:09:29.808Z,94.12
2023-04-20T03:11:58.197Z,94.10
2023-04-20T03:14:26.970Z,94.35
2023-04-20T03:16:55.609Z,94.36
2023-04-20T03:19:24.511Z,94.44
2023-04-20T03:21:52.824Z,94.33
2023-04-20T03:24:22.317Z,94.38
2023-04-20T03:26:50.868Z,94.40
2023-04-20T03:29:19.521Z,94.22
2023-04-20T03:31:48.215Z,94.08
2023-04-20T03:34:18.941Z,94.26
2023-04-20T03:36:47.268Z,94.33
2023-04-20T03:39:15.866Z,94.55
2023-04-20T03:41:44.572Z,94.55
2023-04-20T03:44:14.136Z,94.68
2023-04-20T03:46:45.236Z,94.52
2023-04-20T03:49:13.574Z,94.44
2023-04-20T03:51:41.919Z,94.52
2023-04-20T03:54:11.114Z,94.59
2023-04-20T03:56:39.451Z,94.47
2023-04-20T03:59:08.375Z,94.32
2023-04-20T04:01:40.739Z,94.52
2023-04-20T04:04:09.890Z,94.67
2023-04-20T04:06:38.513Z,94.86
2023-04-20T04:09:07.666Z,94.93
2023-04-20T04:11:37.185Z,95.04
2023-04-20T04:14:05.565Z,95.06
2023-04-20T04:16:34.037Z,95.09
2023-04-20T04:19:02.416Z,95.16
2023-04-20T04:21:30.854Z,95.17
2023-04-20T04:23:59.483Z,95.17
2023-04-20T04:26:27.843Z,95.24
2023-04-20T04:28:56.228Z,95.29
2023-04-20T04:31:25.205Z,95.34
2023-04-20T04:33:53.816Z,95.34
2023-04-20T04:36:22.129Z,95.18
2023-04-20T04:38:50.796Z,95.20
2023-04-20T04:41:19.375Z,95.23
2023-04-20T04:43:48.066Z,95.07
2023-04-20T04:46:16.412Z,95.11
2023-04-20T04:48:46.633Z,94.95
2023-04-20T04:51:15.020Z,94.93
2023-04-20T04:53:45.221Z,94.91
2023-04-20T04:56:13.832Z,95.01
2023-04-20T04:58:42.240Z,95.03
2023-04-20T05:01:11.516Z,95.36
2023-04-20T05:03:39.989Z,95.26
2023-04-20T05:06:08.509Z,95.33
2023-04-20T05:08:38.656Z,95.55
2023-04-20T05:11:07.092Z,95.92
2023-04-20T05:13:35.559Z,95.88
2023-04-20T05:16:05.173Z,95.78
2023-04-20T05:18:33.677Z,95.79
2023-04-20T05:21:02.124Z,95.88
2023-04-20T05:23:30.508Z,95.72
2023-04-20T05:25:58.925Z,95.88
2023-04-20T05:28:27.670Z,95.68
2023-04-20T05:30:55.986Z,95.59
2023-04-20T05:33:25.054Z,95.50
2023-04-20T05:36:03.405Z,95.76
2023-04-20T05:38:31.725Z,95.80
2023-04-20T05:41:00.618Z,95.67
2023-04-20T05:43:29.019Z,95.65
2023-04-20T05:45:57.348Z,95.79
2023-04-20T05:48:29.801Z,95.86
2023-04-20T05:50:58.559Z,96.02
2023-04-20T05:53:26.941Z,95.96
2023-04-20T05:55:55.278Z,95.78
2023-04-20T05:58:23.837Z,95.82
2023-04-20T06:00:53.439Z,95.99
2023-04-20T06:03:22.950Z,95.96
2023-04-20T06:08:20.188Z,95.87
2023-04-20T06:10:48.540Z,95.81
2023-04-20T06:13:16.964Z,95.93
2023-04-20T06:15:45.766Z,95.95
2023-04-20T06:18:14.725Z,95.94
2023-04-20T06:20:44.237Z,96.03
2023-04-20T06:23:12.831Z,96.05
2023-04-20T06:25:41.582Z,95.99
2023-04-20T06:28:10.733Z,96.20
2023-04-20T06:31:01.945Z,96.11
2023-04-20T06:33:31.196Z,96.28
2023-04-20T06:35:59.593Z,95.99
2023-04-20T06:38:28.004Z,95.94
2023-04-20T06:40:58.844Z,95.97
2023-04-20T06:43:27.311Z,96.03
2023-04-20T06:46:10.607Z,96.01
2023-04-20T06:48:39.025Z,95.83
2023-04-20T06:51:07.428Z,95.83
2023-04-20T06:53:35.803Z,95.57
2023-04-20T06:56:04.456Z,95.28
2023-04-20T06:58:34.230Z,95.17
2023-04-20T07:01:06.870Z,95.13
2023-04-20T07:03:35.652Z,95.34
2023-04-20T07:06:05.665Z,95.44
2023-04-20T07:08:34.164Z,95.59
2023-04-20T07:11:02.585Z,95.53
2023-04-20T07:13:33.946Z,95.50
2023-04-20T07:16:02.867Z,95.20
2023-04-20T07:18:33.915Z,95.15
2023-04-20T07:21:03.907Z,94.70
2023-04-20T07:23:32.933Z,94.12
2023-04-20T07:26:07.622Z,94.03
2023-04-20T07:28:37.545Z,94.01
2023-04-20T07:31:06.174Z,94.26
2023-04-20T07:33:35.988Z,94.13
2023-04-20T07:36:06.456Z,93.85
2023-04-20T07:38:40.165Z,93.79
2023-04-20T07:41:11.078Z,93.60
2023-04-20T07:43:41.543Z,93.78
2023-04-20T07:46:13.757Z,93.83
2023-04-20T07:48:42.690Z,94.16
2023-04-20T07:51:11.033Z,94.28
2023-04-20T07:53:39.444Z,94.28
2023-04-20T07:56:08.298Z,94.06
2023-04-20T07:58:41.937Z,93.52
2023-04-20T08:01:11.716Z,93.61
2023-04-20T08:03:41.791Z,93.34
2023-04-20T08:06:10.465Z,93.09
2023-04-20T08:08:38.868Z,92.73
2023-04-20T08:11:08.296Z,92.66
2023-04-20T08:13:37.473Z,92.76
2023-04-20T08:16:06.336Z,92.90
2023-04-20T08:18:34.906Z,92.24
2023-04-20T08:21:03.627Z,92.19
2023-04-20T08:23:32.046Z,92.40
2023-04-20T08:26:01.346Z,92.28
2023-04-20T08:28:33.792Z,91.93
2023-04-20T08:31:03.196Z,91.88
2023-04-20T08:33:33.723Z,91.75
2023-04-20T08:36:02.142Z,91.58
2023-04-20T08:38:34.245Z,91.33
2023-04-20T08:41:03.379Z,91.14
2023-04-20T08:43:32.561Z,90.99
2023-04-20T08:46:04.316Z,90.71
2023-04-20T08:48:36.561Z,90.49
2023-04-20T08:51:06.215Z,90.62
2023-04-20T08:53:35.291Z,90.62
2023-04-20T08:56:04.322Z,90.90
2023-04-20T08:58:32.976Z,90.61
2023-04-20T09:01:01.721Z,90.48
2023-04-20T09:03:58.936Z,90.41
2023-04-20T09:06:28.216Z,90.25
2023-04-20T09:08:56.762Z,89.99
2023-04-20T09:11:34.276Z,89.65
2023-04-20T09:14:07.214Z,89.76
2023-04-20T09:16:40.232Z,89.77
2023-04-20T09:19:09.304Z,89.54
2023-04-20T09:21:49.083Z,89.47
2023-04-20T09:24:21.576Z,88.99
2023-04-20T09:26:51.132Z,88.93
2023-04-20T09:29:22.317Z,88.51
2023-04-20T09:31:52.965Z,87.96
2023-04-20T09:34:23.554Z,87.68
2023-04-20T09:36:56.079Z,87.05
2023-04-20T09:39:25.010Z,86.85
2023-04-20T09:41:53.453Z,86.72
2023-04-20T09:44:22.366Z,86.82
2023-04-20T09:46:51.315Z,86.55
2023-04-20T09:49:21.408Z,86.11
2023-04-20T09:51:51.156Z,85.85
2023-04-20T09:54:20.327Z,85.57
2023-04-20T09:56:49.629Z,85.71
2023-04-20T09:59:19.713Z,85.59
2023-04-20T10:01:49.311Z,86.15
2023-04-20T10:04:18.371Z,86.70
2023-04-20T10:06:55.540Z,86.52
2023-04-20T10:09:26.446Z,86.16
2023-04-20T10:12:07.316Z,85.31
2023-04-20T10:14:35.846Z,84.21
2023-04-20T10:17:09.771Z,83.70
2023-04-20T10:19:44.642Z,83.55
2023-04-20T10:22:29.151Z,82.74
2023-04-20T10:24:57.530Z,82.27
2023-04-20T10:27:26.153Z,81.64
2023-04-20T10:29:54.588Z,81.02
2023-04-20T10:32:28.772Z,80.65
2023-04-20T10:35:06.785Z,79.88
2023-04-20T10:37:36.021Z,79.30
2023-04-20T10:40:07.438Z,78.77
2023-04-20T10:42:45.890Z,78.06
2023-04-20T10:45:14.376Z,77.32
2023-04-20T10:47:44.327Z,76.63
2023-04-20T10:50:15.980Z,76.67
2023-04-20T10:52:44.768Z,76.60
2023-04-20T10:55:24.512Z,76.32
2023-04-20T10:57:53.498Z,76.16
2023-04-20T11:00:25.103Z,76.55
2023-04-20T11:02:59.152Z,76.43
2023-04-20T11:05:27.980Z,75.40
2023-04-20T11:08:04.051Z,74.46
2023-04-20T11:10:42.652Z,74.12
2023-04-20T11:13:22.570Z,73.37
2023-04-20T11:15:51.628Z,72.91
2023-04-20T11:18:20.259Z,73.42
2023-04-20T11:20:52.937Z,73.20
2023-04-20T11:23:23.834Z,73.05
2023-04-20T11:25:55.015Z,72.99
2023-04-20T11:28:24.183Z,72.94
2023-04-20T11:30:52.851Z,72.62
2023-04-20T11:33:33.172Z,72.09
2023-04-20T11:36:02.297Z,71.37
2023-04-20T11:38:35.105Z,71.36
2023-04-20T11:41:07.933Z,71.54
2023-04-20T11:43:36.349Z,71.36
2023-04-20T11:46:15.074Z,71.80
2023-04-20T11:48:44.160Z,71.52
2023-04-20T11:51:13.785Z,71.42
2023-04-20T11:53:42.657Z,71.02
2023-04-20T11:56:13.824Z,70.58
2023-04-20T11:58:42.292Z,70.16
2023-04-20T12:01:10.796Z,69.26
2023-04-20T12:03:39.601Z,69.29
2023-04-20T12:06:08.471Z,69.19
2023-04-20T12:08:37.279Z,68.93
2023-04-20T12:11:05.645Z,68.58
2023-04-20T12:13:34.077Z,68.85
2023-04-20T12:16:02.538Z,68.99
2023-04-20T12:18:30.968Z,68.82
2023-04-20T12:21:00.669Z,68.93
2023-04-20T12:23:29.083Z,68.99
2023-04-20T12:25:58.078Z,68.28
2023-04-20T12:28:26.413Z,68.54
2023-04-20T12:30:54.869Z,68.49
2023-04-20T12:33:23.309Z,67.93
2023-04-20T12:35:51.816Z,67.85
2023-04-20T12:38:20.246Z,67.68
2023-04-20T12:40:48.738Z,67.42
2023-04-20T12:43:17.100Z,67.04
2023-04-20T12:45:45.861Z,66.17
2023-04-20T12:48:14.409Z,64.94
2023-04-20T12:50:43.010Z,64.90
2023-04-20T12:53:13.346Z,65.23
2023-04-20T12:55:42.665Z,65.41
2023-04-20T12:58:11.328Z,64.61
2023-04-20T13:00:42.082Z,63.56
2023-04-20T13:03:10.676Z,62.74
2023-04-20T13:05:39.138Z,62.65
2023-04-20T13:08:07.467Z,62.26
2023-04-20T13:10:37.132Z,61.86
2023-04-20T13:13:05.893Z,62.10
2023-04-20T13:15:39.018Z,62.03
2023-04-20T13:18:09.923Z,62.02
2023-04-20T13:20:38.512Z,62.41
2023-04-20T13:23:07.432Z,62.34
2023-04-20T13:25:38.299Z,62.40
2023-04-20T13:28:07.064Z,62.67
2023-04-20T13:30:36.449Z,62.97
2023-04-20T13:33:04.948Z,63.95
2023-04-20T13:35:34.547Z,64.36
2023-04-20T13:38:06.359Z,64.08
2023-04-20T13:40:35.900Z,63.57
2023-04-20T13:43:04.526Z,62.99
2023-04-20T13:45:33.051Z,62.62
2023-04-20T13:48:01.627Z,62.69
2023-04-20T13:50:31.017Z,62.44
2023-04-20T13:53:03.212Z,62.13
2023-04-20T13:55:32.146Z,62.53
2023-04-20T13:58:02.135Z,62.72
2023-04-20T14:00:31.693Z,63.10
2023-04-20T14:03:04.709Z,63.39
2023-04-20T14:05:34.976Z,63.54
2023-04-20T14:08:04.656Z,63.39
2023-04-20T14:10:34.259Z,63.37
2023-04-20T14:13:04.597Z,63.12
2023-04-20T14:15:35.178Z,63.05
2023-04-20T14:18:08.043Z,63.01
2023-04-20T14:20:38.622Z,63.00
2023-04-20T14:23:09.607Z,62.86
2023-04-20T14:25:40.404Z,63.15
2023-04-20T14:28:09.614Z,63.47
2023-04-20T14:30:38.380Z,63.67
2023-04-20T14:33:08.135Z,63.67
2023-04-20T14:35:37.173Z,63.69
2023-04-20T14:38:05.612Z,64.18
2023-04-20T14:40:34.232Z,63.89
2023-04-20T14:43:02.916Z,63.23
2023-04-20T14:45:31.481Z,62.21
2023-04-20T14:47:59.933Z,61.75
2023-04-20T14:50:28.488Z,61.67
2023-04-20T14:52:57.003Z,61.30
2023-04-20T14:55:26.079Z,61.18
2023-04-20T14:57:57.102Z,61.49
2023-04-20T15:00:28.347Z,61.17
2023-04-20T15:02:57.451Z,60.85
2023-04-20T15:05:28.072Z,60.38
2023-04-20T15:07:57.711Z,59.90
2023-04-20T15:10:31.028Z,58.86
2023-04-20T15:12:59.375Z,58.14
2023-04-20T15:15:37.623Z,57.42
2023-04-20T15:18:17.449Z,57.26
2023-04-20T15:20:46.085Z,56.72
2023-04-20T15:23:15.010Z,56.20
2023-04-20T15:25:43.751Z,55.69
2023-04-20T15:28:12.342Z,55.30
2023-04-20T15:30:41.757Z,54.74
2023-04-20T15:33:10.923Z,54.12
2023-04-20T15:35:39.697Z,53.63
2023-04-20T15:38:08.232Z,53.74
2023-04-20T15:40:36.737Z,53.64
2023-04-20T15:43:05.186Z,53.62
2023-04-20T15:45:33.630Z,53.44
2023-04-20T15:48:02.064Z,53.44
2023-04-20T15:50:30.884Z,53.46
2023-04-20T15:52:59.298Z,53.11
2023-04-20T15:55:27.867Z,53.23
2023-04-20T15:57:58.282Z,52.87
2023-04-20T16:00:26.990Z,51.99
2023-04-20T16:02:55.864Z,51.36
2023-04-20T16:05:24.339Z,51.53
2023-04-20T16:07:54.609Z,51.11
2023-04-20T16:10:23.705Z,50.89
2023-04-20T16:12:52.295Z,51.06
2023-04-20T16:15:21.136Z,51.18
2023-04-20T16:17:49.572Z,51.00
2023-04-20T16:20:18.128Z,50.97
2023-04-20T16:22:46.469Z,50.99
2023-04-20T16:25:22.635Z,50.84
2023-04-20T16:27:51.798Z,50.89
2023-04-20T16:30:20.576Z,50.76
2023-04-20T16:32:49.743Z,50.41
2023-04-20T16:35:18.507Z,50.42
2023-04-20T16:37:47.062Z,49.87
2023-04-20T16:40:15.740Z,49.67
2023-04-20T16:42:44.041Z,49.81
2023-04-20T16:45:13.537Z,49.63
2023-04-20T16:47:41.995Z,49.29
2023-04-20T16:50:14.337Z,48.99
2023-04-20T16:52:42.936Z,48.86
2023-04-20T16:55:11.454Z,48.67
2023-04-20T16:57:41.300Z,48.44
2023-04-20T17:00:10.835Z,48.34
2023-04-20T17:02:39.393Z,48.19
2023-04-20T17:05:08.374Z,48.28
2023-04-20T17:07:37.024Z,48.22
2023-04-20T17:10:06.186Z,47.98
2023-04-20T17:12:34.617Z,48.29
2023-04-20T17:15:03.788Z,48.75
2023-04-20T17:17:33.000Z,48.69
2023-04-20T17:20:02.178Z,49.05
2023-04-20T17:22:30.566Z,49.45
2023-04-20T17:25:01.428Z,49.85
2023-04-20T17:27:29.944Z,50.37
2023-04-20T17:29:58.705Z,50.85
2023-04-20T17:32:27.243Z,51.25
2023-04-20T17:34:55.710Z,51.85
2023-04-20T17:37:24.459Z,52.33
2023-04-20T17:39:52.860Z,52.70
2023-04-20T17:42:21.297Z,53.11
2023-04-20T17:44:49.606Z,53.86
2023-04-20T17:47:17.929Z,54.25
2023-04-20T17:49:46.310Z,54.92
2023-04-20T17:52:19.311Z,55.48
2023-04-20T17:54:47.760Z,55.91
2023-04-20T17:57:16.361Z,56.52
2023-04-20T17:59:44.827Z,57.14
2023-04-20T18:02:13.335Z,57.61
2023-04-20T18:04:41.978Z,58.17
2023-04-20T18:07:13.173Z,58.81
2023-04-20T18:09:43.293Z,59.22
2023-04-20T18:12:11.843Z,59.77
2023-04-20T18:14:40.842Z,60.28
2023-04-20T18:17:09.280Z,60.75
2023-04-20T18:19:37.957Z,61.24
2023-04-20T18:22:07.451Z,61.67
2023-04-20T18:24:35.961Z,62.03
2023-04-20T18:27:04.427Z,62.47
2023-04-20T18:29:33.053Z,63.06
2023-04-20T18:32:01.858Z,63.37
2023-04-20T18:34:32.291Z,63.82
2023-04-20T18:37:00.992Z,64.26
2023-04-20T18:39:29.951Z,64.63
2023-04-20T18:41:58.653Z,65.06
2023-04-20T18:44:28.395Z,65.38
2023-04-20T18:46:57.631Z,65.72
2023-04-20T18:49:26.576Z,66.06
2023-04-20T18:51:55.285Z,66.30
2023-04-20T18:54:23.726Z,66.59
2023-04-20T18:56:54.687Z,66.84
2023-04-20T18:59:24.744Z,67.31
2023-04-20T19:01:53.533Z,67.37
2023-04-20T19:04:22.231Z,67.86
2023-04-20T19:06:50.973Z,68.11
2023-04-20T19:09:19.372Z,68.41
2023-04-20T19:11:49.987Z,68.61
2023-04-20T19:14:18.745Z,68.96
2023-04-20T19:16:47.381Z,69.17
2023-04-20T19:19:16.067Z,69.49
2023-04-20T19:21:44.523Z,69.69
2023-04-20T19:24:13.461Z,70.09
2023-04-20T19:26:43.414Z,70.23
2023-04-20T19:29:13.476Z,70.46
2023-04-20T19:31:42.156Z,70.73
2023-04-20T19:34:13.637Z,71.05
2023-04-20T19:36:43.978Z,71.31
2023-04-20T19:39:12.856Z,71.57
2023-04-20T19:41:41.571Z,71.69
2023-04-20T19:44:12.119Z,71.97
2023-04-20T19:46:43.585Z,72.23
2023-04-20T19:49:12.019Z,72.31
2023-04-20T19:51:40.548Z,72.59
2023-04-20T19:54:08.958Z,72.76
2023-04-20T19:56:37.626Z,72.84
2023-04-20T19:59:06.081Z,73.04
2023-04-20T20:01:34.698Z,73.22
2023-04-20T20:04:03.464Z,73.24
2023-04-20T20:06:32.561Z,73.56
2023-04-20T20:09:02.120Z,73.66
2023-04-20T20:11:30.617Z,73.68
2023-04-20T20:13:59.890Z,73.77
2023-04-20T20:16:29.327Z,74.06
2023-04-20T20:18:59.978Z,74.19
2023-04-20T20:21:28.465Z,74.39
2023-04-20T20:23:56.980Z,74.48
2023-04-20T20:26:25.499Z,74.75
2023-04-20T20:28:53.983Z,74.72
2023-04-20T20:31:22.435Z,74.94
2023-04-20T20:33:52.127Z,75.11
2023-04-20T20:36:21.346Z,75.20
2023-04-20T20:38:49.831Z,75.34
2023-04-20T20:41:21.143Z,75.41
2023-04-20T20:43:50.179Z,75.56
2023-04-20T20:46:19.217Z,76.00
2023-04-20T20:48:47.674Z,76.19
2023-04-20T20:51:16.312Z,76.29
2023-04-20T20:53:44.809Z,76.45
2023-04-20T20:56:13.180Z,76.66
2023-04-20T20:58:41.557Z,76.84
2023-04-20T21:01:09.993Z,76.91
2023-04-20T21:03:38.704Z,77.08
2023-04-20T21:06:07.660Z,77.16
2023-04-20T21:08:38.711Z,77.38
2023-04-20T21:11:07.322Z,77.44
2023-04-20T21:13:35.785Z,77.58
2023-04-20T21:16:04.327Z,77.67
2023-04-20T21:18:32.765Z,77.87
2023-04-20T21:21:01.099Z,77.92
2023-04-20T21:23:29.511Z,78.13
2023-04-20T21:25:57.918Z,78.19
2023-04-20T21:28:26.375Z,78.24
2023-04-20T21:30:54.788Z,78.43
2023-04-20T21:33:23.144Z,78.66
2023-04-20T21:35:51.539Z,78.81
2023-04-20T21:38:19.892Z,78.87
2023-04-20T21:40:51.195Z,78.99
2023-04-20T21:43:19.491Z,79.13
2023-04-20T21:45:47.932Z,79.18
2023-04-20T21:48:16.294Z,79.24
2023-04-20T21:50:44.662Z,79.35
2023-04-20T21:53:13.003Z,79.48
2023-04-20T21:55:41.556Z,79.62
2023-04-20T21:58:10.327Z,79.83
2023-04-20T22:00:38.818Z,80.04
2023-04-20T22:03:07.410Z,80.22
2023-04-20T22:05:36.571Z,80.33
2023-04-20T22:08:05.398Z,80.54
2023-04-20T22:10:33.849Z,80.65
2023-04-20T22:13:02.461Z,80.87
2023-04-20T22:15:30.951Z,80.96
2023-04-20T22:18:04.275Z,81.04
2023-04-20T22:20:32.757Z,81.14
2023-04-20T22:23:01.227Z,81.26
2023-04-20T22:25:29.609Z,81.44
2023-04-20T22:27:58.096Z,81.46
2023-04-20T22:30:26.796Z,81.54
2023-04-20T22:32:55.194Z,81.63
2023-04-20T22:35:23.631Z,81.66
2023-04-20T22:37:51.990Z,81.73
2023-04-20T22:40:20.395Z,81.98
2023-04-20T22:42:48.893Z,82.14
2023-04-20T22:45:19.739Z,82.17
2023-04-20T22:47:48.197Z,82.21
2023-04-20T22:50:16.843Z,82.24
2023-04-20T22:52:45.259Z,82.34
2023-04-20T22:55:14.460Z,82.51
2023-04-20T22:57:42.826Z,82.58
2023-04-20T23:00:13.858Z,82.74
2023-04-20T23:02:42.539Z,82.77
2023-04-20T23:05:10.988Z,82.95
2023-04-20T23:07:39.562Z,83.10
2023-04-20T23:10:09.491Z,83.17
2023-04-20T23:12:38.396Z,83.28
2023-04-20T23:15:07.491Z,83.17
2023-04-20T23:17:36.033Z,83.47
2023-04-20T23:20:10.236Z,83.71
2023-04-20T23:22:38.576Z,83.51
2023-04-20T23:25:07.467Z,83.68
2023-04-20T23:27:35.794Z,83.67
2023-04-20T23:30:06.668Z,83.77
2023-04-20T23:32:35.616Z,83.82
2023-04-20T23:35:04.430Z,83.67
2023-04-20T23:37:32.986Z,83.88
2023-04-20T23:40:01.873Z,83.95
2023-04-20T23:42:30.180Z,84.09
2023-04-20T23:44:58.830Z,84.30
2023-04-20T23:47:27.255Z,84.33
2023-04-20T23:49:55.719Z,84.44
2023-04-20T23:52:24.184Z,84.60
2023-04-20T23:54:52.521Z,84.78
2023-04-20T23:57:20.914Z,84.88
2023-04-20T23:59:49.276Z,84.96
